createdAt,value
2022-10-11T00:01:43.809Z,3.70
2022-10-11T00:06:47.508Z,3.30
2022-10-11T00:11:47.296Z,3.58
2022-10-11T00:17:03.132Z,3.58
2022-10-11T00:22:12.644Z,4.75
2022-10-11T00:27:16.486Z,4.00
2022-10-11T00:32:19.841Z,4.07
2022-10-11T00:37:28.532Z,4.20
2022-10-11T00:42:29.549Z,3.88
2022-10-11T00:48:22.833Z,3.20
2022-10-11T00:53:22.963Z,3.20
2022-10-11T00:58:50.795Z,3.40
2022-10-11T01:04:24.757Z,3.75
2022-10-11T01:09:42.374Z,3.75
2022-10-11T01:27:22.417Z,3.13
2022-10-11T01:32:49.131Z,3.10
2022-10-11T01:38:35.829Z,3.45
2022-10-11T01:43:40.425Z,2.90
2022-10-11T01:49:00.359Z,3.53
2022-10-11T01:54:04.285Z,3.30
2022-10-11T01:59:23.807Z,3.50
2022-10-11T02:04:38.301Z,3.47
2022-10-11T02:09:45.890Z,3.70
2022-10-11T02:14:47.991Z,3.22
2022-10-11T02:19:49.943Z,3.10
2022-10-11T02:24:51.057Z,3.28
2022-10-11T02:29:51.906Z,3.80
2022-10-11T02:34:54.455Z,3.13
2022-10-11T02:40:27.673Z,2.97
2022-10-11T02:45:40.339Z,3.00
2022-10-11T02:50:40.551Z,2.97
2022-10-11T02:55:42.886Z,3.38
2022-10-11T03:00:41.609Z,3.92
2022-10-11T03:05:44.165Z,3.40
2022-10-11T03:10:45.796Z,3.38
2022-10-11T03:16:02.792Z,2.97
2022-10-11T03:21:09.717Z,3.28
2022-10-11T03:26:09.986Z,3.45
2022-10-11T03:31:10.197Z,3.78
2022-10-11T03:36:09.269Z,3.47
2022-10-11T03:41:10.519Z,3.72
2022-10-11T03:46:09.491Z,4.20
2022-10-11T03:51:13.447Z,3.85
2022-10-11T03:56:15.396Z,4.45
2022-10-11T04:01:17.259Z,5.22
2022-10-11T04:06:16.446Z,4.80
2022-10-11T04:11:20.276Z,4.13
2022-10-11T04:16:18.323Z,3.83
2022-10-11T04:21:22.383Z,4.38
2022-10-11T04:31:21.809Z,3.72
2022-10-11T04:36:23.877Z,3.90
2022-10-11T04:41:22.519Z,16.55
2022-10-11T04:46:25.507Z,6.18
2022-10-11T04:51:34.174Z,5.18
2022-10-11T04:56:33.884Z,4.82
2022-10-11T05:01:32.400Z,5.50
2022-10-11T05:06:30.725Z,5.03
2022-10-11T05:11:29.359Z,7.80
2022-10-11T05:16:33.912Z,5.82
2022-10-11T05:21:33.650Z,4.28
2022-10-11T05:26:32.347Z,4.18
2022-10-11T05:31:33.583Z,4.28
2022-10-11T05:36:33.785Z,3.78
2022-10-11T05:41:33.993Z,4.30
2022-10-11T05:46:35.760Z,5.70
2022-10-11T05:51:37.997Z,4.63
2022-10-11T05:56:39.331Z,5.80
2022-10-11T06:01:40.067Z,6.05
2022-10-11T06:06:40.723Z,6.40
2022-10-11T06:11:38.536Z,8.20
2022-10-11T06:16:38.187Z,6.53
2022-10-11T06:21:36.834Z,6.35
2022-10-11T06:26:37.945Z,7.60
2022-10-11T06:31:38.633Z,8.57
2022-10-11T06:36:39.971Z,7.93
2022-10-11T06:41:40.080Z,7.72
2022-10-11T06:46:41.091Z,7.10
2022-10-11T06:51:39.728Z,8.30
2022-10-11T06:56:48.387Z,6.80
2022-10-11T07:01:50.167Z,6.85
2022-10-11T07:06:50.953Z,6.28
2022-10-11T07:11:49.320Z,6.43
2022-10-11T07:16:47.974Z,5.90
2022-10-11T07:21:49.734Z,5.20
2022-10-11T07:26:50.942Z,5.38
2022-10-11T07:31:49.660Z,6.05
2022-10-11T07:36:51.672Z,4.32
2022-10-11T07:41:53.462Z,4.90
2022-10-11T07:46:52.886Z,4.53
2022-10-11T07:51:55.305Z,5.82
2022-10-11T07:56:57.036Z,4.07
2022-10-11T08:01:56.249Z,4.03
2022-10-11T08:06:55.648Z,3.60
2022-10-11T08:11:56.631Z,4.43
2022-10-11T08:16:57.368Z,3.85
2022-10-11T08:21:59.670Z,6.50
2022-10-11T08:26:59.458Z,3.67
2022-10-11T08:31:58.566Z,3.75
2022-10-11T08:36:57.261Z,3.75
2022-10-11T08:42:03.453Z,4.35
2022-10-11T08:47:28.019Z,3.70
2022-10-11T08:52:45.354Z,2.78
2022-10-11T08:57:49.100Z,3.80
2022-10-11T09:03:18.806Z,3.03
2022-10-11T09:08:46.607Z,2.70
2022-10-11T09:14:06.801Z,2.97
2022-10-11T09:19:28.685Z,3.92
2022-10-11T09:24:40.810Z,3.25
2022-10-11T09:30:04.101Z,3.50
2022-10-11T09:35:15.767Z,3.50
2022-10-11T09:40:32.978Z,3.90
2022-10-11T09:45:36.532Z,4.47
2022-10-11T09:50:35.631Z,3.70
2022-10-11T09:55:58.045Z,2.92
2022-10-11T10:01:14.591Z,3.65
2022-10-11T10:06:16.116Z,3.58
2022-10-11T10:11:15.714Z,3.28
2022-10-11T10:16:30.307Z,2.85
2022-10-11T10:21:30.250Z,4.53
2022-10-11T10:26:34.796Z,3.30
2022-10-11T10:32:13.023Z,2.83
2022-10-11T10:37:30.558Z,3.60
2022-10-11T10:42:29.575Z,4.00
2022-10-11T10:47:56.275Z,4.35
2022-10-11T10:53:31.394Z,4.93
2022-10-11T10:58:28.759Z,3.78
2022-10-11T11:03:44.805Z,4.20
2022-10-11T11:08:55.819Z,3.70
2022-10-11T11:14:02.499Z,3.55
2022-10-11T11:19:17.792Z,3.95
2022-10-11T11:24:35.322Z,4.28
2022-10-11T11:29:55.555Z,5.28
2022-10-11T11:35:04.930Z,5.10
2022-10-11T11:40:15.161Z,5.43
2022-10-11T11:45:40.955Z,7.90
2022-10-11T11:50:43.970Z,4.07
2022-10-11T11:56:14.044Z,5.65
2022-10-11T12:01:34.414Z,4.70
2022-10-11T12:06:37.889Z,4.20
2022-10-11T12:11:38.655Z,4.15
2022-10-11T12:17:07.890Z,4.22
2022-10-11T12:22:39.785Z,5.13
2022-10-11T12:27:41.848Z,5.07
2022-10-11T12:32:41.203Z,4.50
2022-10-11T12:37:41.707Z,5.30
2022-10-11T12:42:40.036Z,4.53
2022-10-11T12:48:06.390Z,4.55
2022-10-11T12:53:28.040Z,4.80
2022-10-11T12:58:46.555Z,4.95
2022-10-11T13:03:59.577Z,7.10
2022-10-11T13:09:23.436Z,6.43
2022-10-11T13:19:24.213Z,7.47
2022-10-11T13:24:27.043Z,7.55
2022-10-11T13:29:40.071Z,7.53
2022-10-11T13:34:40.661Z,7.50
2022-10-11T13:39:39.332Z,6.85
2022-10-11T13:44:41.411Z,8.05
2022-10-11T13:50:03.045Z,5.35
2022-10-11T13:55:04.975Z,5.80
2022-10-11T14:00:21.967Z,4.50
2022-10-11T14:05:35.641Z,4.75
2022-10-11T14:10:34.693Z,4.20
2022-10-11T14:15:37.684Z,4.88
2022-10-11T14:20:37.657Z,4.93
2022-10-11T14:25:35.383Z,4.30
2022-10-11T14:30:36.355Z,5.30
2022-10-11T14:35:36.592Z,6.35
2022-10-11T14:40:34.466Z,5.97
2022-10-11T14:45:32.877Z,7.50
2022-10-11T14:50:38.446Z,9.70
2022-10-11T14:55:40.764Z,6.63
2022-10-11T15:00:38.675Z,5.65
2022-10-11T15:05:39.164Z,5.65
2022-10-11T15:10:42.098Z,6.82
2022-10-11T15:15:45.705Z,5.70
2022-10-11T15:20:45.608Z,6.80
2022-10-11T15:25:43.907Z,7.45
2022-10-11T15:30:42.202Z,7.57
2022-10-11T15:35:42.529Z,8.60
2022-10-11T15:40:46.794Z,8.60
2022-10-11T15:45:48.296Z,7.47
2022-10-11T15:50:46.746Z,6.43
2022-10-11T15:55:47.697Z,6.70
2022-10-11T16:00:50.746Z,8.07
2022-10-11T16:05:54.965Z,9.45
2022-10-11T16:10:56.471Z,11.75
2022-10-11T16:15:57.623Z,12.15
2022-10-11T16:20:56.412Z,12.88
2022-10-11T16:26:01.862Z,12.25
2022-10-11T16:30:59.510Z,13.15
2022-10-11T16:36:18.664Z,14.10
2022-10-11T16:41:17.012Z,12.48
2022-10-11T16:46:15.483Z,10.38
2022-10-11T16:51:14.966Z,9.23
2022-10-11T16:56:13.785Z,7.93
2022-10-11T17:01:17.611Z,8.65
2022-10-11T17:06:16.431Z,10.27
2022-10-11T17:11:17.838Z,9.18
2022-10-11T17:16:17.450Z,10.25
2022-10-11T17:21:19.351Z,9.68
2022-10-11T17:26:24.158Z,8.13
2022-10-11T17:31:26.595Z,8.88
2022-10-11T17:36:35.321Z,9.05
2022-10-11T17:41:40.729Z,10.73
2022-10-11T17:46:39.165Z,9.75
2022-10-11T17:51:37.617Z,10.60
2022-10-11T17:56:39.370Z,9.80
2022-10-11T18:01:41.813Z,10.18
2022-10-11T18:06:48.108Z,9.98
2022-10-11T18:11:50.278Z,11.23
2022-10-11T18:16:51.011Z,11.93
2022-10-11T18:21:52.781Z,12.48
2022-10-11T18:26:53.106Z,13.20
2022-10-11T18:31:54.181Z,13.35
2022-10-11T18:37:05.120Z,13.50
2022-10-11T18:42:13.778Z,12.90
2022-10-11T18:47:23.519Z,11.77
2022-10-11T18:52:24.838Z,12.15
2022-10-11T18:58:12.588Z,11.98
2022-10-11T19:03:15.673Z,11.20
2022-10-11T19:08:14.758Z,13.48
2022-10-11T19:13:45.191Z,12.80
2022-10-11T19:19:05.517Z,12.65
2022-10-11T19:24:09.301Z,13.27
2022-10-11T19:29:31.544Z,12.05
2022-10-11T19:34:31.903Z,13.43
2022-10-11T19:39:30.044Z,12.05
2022-10-11T19:44:29.153Z,13.73
2022-10-11T19:49:33.987Z,13.52
2022-10-11T19:54:34.867Z,13.85
2022-10-11T19:59:34.188Z,14.80
2022-10-11T20:04:51.689Z,14.02
2022-10-11T20:09:54.721Z,12.90
2022-10-11T20:14:53.502Z,12.35
2022-10-11T20:20:04.419Z,12.32
2022-10-11T20:25:06.531Z,12.32
2022-10-11T20:30:17.021Z,12.57
2022-10-11T20:35:16.044Z,14.95
2022-10-11T20:40:14.678Z,15.13
2022-10-11T20:45:15.771Z,13.88
2022-10-11T20:50:13.179Z,13.48
2022-10-11T20:55:11.677Z,13.27
2022-10-11T21:00:13.798Z,13.60
2022-10-11T21:05:14.747Z,12.95
2022-10-11T21:10:15.323Z,13.02
2022-10-11T21:15:13.754Z,13.95
2022-10-11T21:20:12.706Z,14.48
2022-10-11T21:30:23.668Z,15.65
2022-10-11T21:35:22.019Z,15.55
2022-10-11T21:40:24.014Z,15.55
2022-10-11T21:45:22.314Z,17.33
2022-10-11T21:50:23.028Z,17.48
2022-10-11T21:55:21.764Z,16.40
2022-10-11T22:00:20.180Z,16.80
2022-10-11T22:05:23.907Z,15.70
2022-10-11T22:10:25.274Z,17.13
2022-10-11T22:15:25.517Z,15.80
2022-10-11T22:20:24.953Z,15.93
2022-10-11T22:25:26.389Z,15.30
2022-10-11T22:30:27.435Z,15.18
2022-10-11T22:35:26.727Z,13.85
2022-10-11T22:40:25.792Z,14.35
2022-10-11T22:45:27.656Z,14.27
2022-10-11T22:50:28.820Z,12.45
2022-10-11T22:55:28.018Z,9.43
2022-10-11T23:00:29.708Z,9.40
2022-10-11T23:05:31.263Z,6.20
2022-10-11T23:10:33.494Z,6.35
2022-10-11T23:15:35.298Z,5.22
2022-10-11T23:20:55.401Z,5.25
2022-10-11T23:26:11.710Z,4.53
2022-10-11T23:31:21.040Z,5.32
2022-10-11T23:36:25.677Z,4.60
2022-10-11T23:41:25.898Z,4.40
2022-10-11T23:46:25.997Z,3.65
2022-10-11T23:51:26.268Z,3.30
2022-10-11T23:56:27.693Z,3.72
